createdAt,value
2022-09-25T09:25:09.253Z,16.32
2022-09-25T09:28:05.207Z,16.45
2022-09-25T09:31:05.240Z,16.54
2022-09-25T09:34:12.088Z,16.47
2022-09-25T09:37:36.377Z,16.63
2022-09-25T09:40:27.517Z,16.73
2022-09-25T09:43:39.963Z,16.69
2022-09-25T09:46:41.069Z,16.82
2022-09-25T09:49:41.879Z,17.03
2022-09-25T09:52:38.069Z,17.15
2022-09-25T09:55:32.421Z,17.21
2022-09-25T09:58:33.019Z,17.18
2022-09-25T10:01:40.254Z,17.37
2022-09-25T10:04:33.728Z,17.50
2022-09-25T10:07:22.718Z,17.53
2022-09-25T10:10:18.915Z,17.70
2022-09-25T10:13:11.115Z,18.00
2022-09-25T10:16:12.786Z,18.09
2022-09-25T10:19:06.174Z,17.93
2022-09-25T10:22:10.026Z,17.96
2022-09-25T10:24:58.511Z,17.98
2022-09-25T10:27:48.892Z,18.07
2022-09-25T10:30:34.638Z,18.39
2022-09-25T10:33:23.304Z,18.73
2022-09-25T10:36:08.861Z,18.94
2022-09-25T10:39:08.364Z,19.05
2022-09-25T10:42:01.703Z,19.19
2022-09-25T10:44:46.738Z,19.19
2022-09-25T10:47:50.849Z,18.99
2022-09-25T10:50:36.901Z,19.06
2022-09-25T10:53:30.696Z,19.27
2022-09-25T10:56:20.545Z,19.28
2022-09-25T10:59:23.706Z,19.35
2022-09-25T11:02:25.123Z,19.24
2022-09-25T11:05:26.297Z,19.29
2022-09-25T11:08:15.297Z,19.25
2022-09-25T11:11:02.935Z,19.33
2022-09-25T11:13:55.338Z,19.31
2022-09-25T11:17:02.301Z,18.92
2022-09-25T11:20:13.955Z,18.87
2022-09-25T11:23:08.415Z,18.77
2022-09-25T11:26:28.806Z,18.73
2022-09-25T11:29:33.757Z,18.70
2022-09-25T11:32:31.959Z,18.73
2022-09-25T11:35:39.035Z,18.70
2022-09-25T11:39:05.271Z,18.71
2022-09-25T11:42:14.824Z,18.73
2022-09-25T11:45:09.114Z,18.88
2022-09-25T11:48:11.243Z,18.98
2022-09-25T11:51:04.406Z,19.12
2022-09-25T11:54:35.970Z,19.13
2022-09-25T11:57:50.195Z,19.12
2022-09-25T12:01:00.483Z,19.14
2022-09-25T12:04:06.001Z,19.09
2022-09-25T12:07:12.512Z,19.11
2022-09-25T12:10:13.044Z,19.03
2022-09-25T12:13:20.876Z,19.18
2022-09-25T12:16:35.661Z,19.11
2022-09-25T12:19:48.438Z,19.06
2022-09-25T12:23:00.299Z,19.20
2022-09-25T12:25:54.991Z,19.41
2022-09-25T12:28:43.336Z,19.51
2022-09-25T12:32:05.877Z,19.52
2022-09-25T12:35:08.059Z,19.51
2022-09-25T12:38:17.702Z,19.38
2022-09-25T12:41:12.855Z,19.33
2022-09-25T12:44:27.589Z,19.27
2022-09-25T12:47:33.237Z,19.32
2022-09-25T12:50:33.895Z,19.18
2022-09-25T12:53:24.948Z,19.06
2022-09-25T12:56:31.141Z,18.96
2022-09-25T12:59:21.954Z,18.88
2022-09-25T13:02:54.471Z,18.86
2022-09-25T13:05:59.068Z,18.92
2022-09-25T13:09:19.691Z,18.93
2022-09-25T13:12:27.092Z,18.90
2022-09-25T13:15:23.212Z,18.81
2022-09-25T13:18:23.165Z,18.83
2022-09-25T13:21:25.617Z,18.84
2022-09-25T13:24:17.572Z,18.86
2022-09-25T13:27:04.711Z,18.91
2022-09-25T13:29:54.737Z,18.92
2022-09-25T13:32:48.677Z,19.00
2022-09-25T13:35:33.954Z,19.05
2022-09-25T13:38:39.899Z,19.15
2022-09-25T13:41:25.932Z,19.14
2022-09-25T13:44:42.028Z,19.17
2022-09-25T13:47:27.485Z,19.16
2022-09-25T13:50:22.387Z,19.26
2022-09-25T13:53:22.825Z,19.31
2022-09-25T13:56:18.496Z,19.36
2022-09-25T13:59:10.233Z,19.36
2022-09-25T14:01:58.926Z,19.35
2022-09-25T14:04:48.190Z,19.24
2022-09-25T14:07:35.204Z,19.14
2022-09-25T14:10:22.484Z,19.03
2022-09-25T14:13:13.629Z,18.97
2022-09-25T14:16:02.368Z,18.96
2022-09-25T14:18:52.739Z,18.94
2022-09-25T14:21:44.366Z,18.94
2022-09-25T14:24:31.280Z,19.01
2022-09-25T14:27:26.435Z,19.07
2022-09-25T14:30:13.909Z,19.12
2022-09-25T14:33:20.917Z,19.16
2022-09-25T14:36:22.675Z,19.17
2022-09-25T14:39:30.019Z,19.13
2022-09-25T14:42:18.940Z,18.91
2022-09-25T14:45:35.052Z,18.89
2022-09-25T14:48:25.863Z,18.83
2022-09-25T14:51:15.839Z,18.71
2022-09-25T14:54:05.297Z,18.62
2022-09-25T14:56:55.681Z,18.60
2022-09-25T14:59:49.609Z,18.53
2022-09-25T15:02:41.786Z,18.49
2022-09-25T15:05:27.039Z,18.45
2022-09-25T15:08:38.675Z,18.30
2022-09-25T15:11:29.570Z,18.32
2022-09-25T15:14:19.769Z,18.22
2022-09-25T15:17:22.553Z,18.20
2022-09-25T15:20:14.293Z,18.15
2022-09-25T15:23:07.370Z,18.15
2022-09-25T15:25:58.802Z,18.11
2022-09-25T15:28:45.530Z,18.10
2022-09-25T15:31:37.555Z,18.11
2022-09-25T15:34:26.322Z,18.09
2022-09-25T15:37:27.568Z,18.01
2022-09-25T15:40:31.712Z,17.92
2022-09-25T15:43:19.927Z,17.85
2022-09-25T15:46:08.181Z,17.81
2022-09-25T15:48:58.255Z,17.77
2022-09-25T15:51:54.644Z,17.70
2022-09-25T15:54:44.998Z,17.67
2022-09-25T15:57:32.332Z,17.66
2022-09-25T16:00:41.190Z,17.65
2022-09-25T16:03:49.407Z,17.59
2022-09-25T16:06:42.985Z,17.50
2022-09-25T16:09:34.212Z,17.49
2022-09-25T16:12:22.723Z,17.49
2022-09-25T16:15:26.556Z,17.48
2022-09-25T16:18:24.415Z,17.37
2022-09-25T16:21:13.899Z,17.22
2022-09-25T16:23:59.462Z,17.11
2022-09-25T16:26:45.941Z,17.03
2022-09-25T16:29:39.045Z,16.94
2022-09-25T16:32:25.080Z,16.85
2022-09-25T16:35:57.536Z,16.77
2022-09-25T16:38:40.263Z,16.75
2022-09-25T16:41:26.082Z,16.75
2022-09-25T16:44:22.903Z,16.75
2022-09-25T16:47:35.097Z,16.76
2022-09-25T16:50:22.020Z,16.75
2022-09-25T16:53:07.535Z,16.73
2022-09-25T16:55:53.805Z,16.72
2022-09-25T16:58:39.277Z,16.71
2022-09-25T17:01:27.427Z,16.69
2022-09-25T17:04:15.578Z,16.66
2022-09-25T17:07:01.020Z,16.61
2022-09-25T17:09:47.286Z,16.55
2022-09-25T17:12:32.426Z,16.53
2022-09-25T17:15:23.825Z,16.49
2022-09-25T17:18:18.041Z,16.46
2022-09-25T17:21:10.231Z,16.43
2022-09-25T17:23:55.544Z,16.42
2022-09-25T17:26:40.750Z,16.37
2022-09-25T17:29:27.508Z,16.33
2022-09-25T17:32:17.367Z,16.30
2022-09-25T17:35:02.887Z,16.25
2022-09-25T17:37:48.027Z,16.23
2022-09-25T17:40:33.489Z,16.18
2022-09-25T17:43:19.620Z,16.17
2022-09-25T17:46:06.732Z,16.15
2022-09-25T17:48:54.751Z,16.12
2022-09-25T17:51:40.835Z,16.10
2022-09-25T17:54:28.009Z,16.09
2022-09-25T17:57:13.519Z,16.08
2022-09-25T17:59:58.827Z,16.07
2022-09-25T18:02:44.439Z,16.05
2022-09-25T18:05:31.646Z,16.01
2022-09-25T18:08:18.466Z,15.98
2022-09-25T18:11:03.756Z,15.95
2022-09-25T18:13:54.372Z,15.89
2022-09-25T18:16:42.091Z,15.88
2022-09-25T18:19:46.269Z,15.88
2022-09-25T18:22:31.789Z,15.87
